Time;durP1;ratioP1;P1;durP2;ratioP2;P2;SDS_P1;SDS_P2;PMS_P1;PMS_P2;Temp;Humidity;BMP_temperature;BMP_pressure;BME280_temperature;BME280_humidity;BME280_pressure;Samples;Min_cycle;Max_cycle;Signal;HPM_P1;HPM_P2
2021/01/15 00:00:13;;;;;;;6.47;5.03;;;5.30;99.90;;;;;;5084921;28;20245;-77
2021/01/15 00:02:39;;;;;;;9.38;5.97;;;5.20;99.90;;;;;;5093369;28;20724;-77
2021/01/15 00:05:07;;;;;;;5.75;4.80;;;5.30;99.90;;;;;;5087501;28;20791;-77
2021/01/15 00:07:34;;;;;;;6.28;5.05;;;5.20;99.90;;;;;;5085649;28;20194;-77
2021/01/15 00:10:00;;;;;;;12.13;5.63;;;5.20;99.90;;;;;;5090535;28;20185;-77
2021/01/15 00:12:27;;;;;;;6.22;5.60;;;5.20;99.90;;;;;;5087573;28;20204;-76
2021/01/15 00:14:53;;;;;;;5.10;4.57;;;5.20;99.90;;;;;;5072644;28;20243;-76
2021/01/15 00:17:19;;;;;;;7.20;4.97;;;5.20;99.90;;;;;;5072891;28;20202;-76
2021/01/15 00:19:45;;;;;;;6.55;4.90;;;5.20;99.90;;;;;;5072555;28;20221;-76
2021/01/15 00:22:12;;;;;;;10.25;5.80;;;5.30;99.90;;;;;;5084748;28;20196;-76
2021/01/15 00:24:39;;;;;;;6.95;5.85;;;5.20;99.90;;;;;;5075438;28;20635;-76
2021/01/15 00:27:06;;;;;;;5.40;4.30;;;5.20;99.90;;;;;;5072415;28;20198;-77
2021/01/15 00:29:32;;;;;;;8.85;5.78;;;5.20;99.90;;;;;;5073906;28;20763;-76
2021/01/15 00:31:58;;;;;;;6.13;5.35;;;5.20;99.90;;;;;;5088979;28;20941;-76
2021/01/15 00:34:24;;;;;;;6.80;6.10;;;5.30;99.90;;;;;;5088264;28;20200;-76
2021/01/15 00:36:51;;;;;;;7.30;5.63;;;5.30;99.90;;;;;;5092532;28;20221;-76
2021/01/15 00:39:17;;;;;;;6.40;4.40;;;5.30;99.90;;;;;;5073835;28;20222;-76
2021/01/15 00:41:46;;;;;;;5.30;4.25;;;5.30;99.90;;;;;;5072152;28;20656;-76
2021/01/15 00:44:12;;;;;;;6.38;4.65;;;5.30;99.90;;;;;;5085103;28;20197;-76
2021/01/15 00:46:45;;;;;;;7.82;5.10;;;5.30;99.90;;;;;;5076388;28;20190;-77
2021/01/15 00:49:14;;;;;;;6.72;4.40;;;5.30;99.90;;;;;;5073526;28;20516;-77
2021/01/15 00:51:47;;;;;;;5.55;4.95;;;5.30;99.90;;;;;;5072294;28;20262;-77
2021/01/15 00:54:13;;;;;;;5.43;4.35;;;5.20;99.90;;;;;;5084912;28;20272;-76
2021/01/15 00:56:40;;;;;;;5.32;4.80;;;5.20;99.90;;;;;;5070607;28;20204;-76
2021/01/15 00:59:07;;;;;;;9.27;5.22;;;5.20;99.90;;;;;;5091477;28;20213;-77
2021/01/15 01:01:37;;;;;;;7.60;5.47;;;5.20;99.90;;;;;;5092051;28;20205;-77
2021/01/15 01:04:03;;;;;;;6.25;4.40;;;5.20;99.90;;;;;;5082835;28;20194;-77
2021/01/15 01:06:30;;;;;;;6.75;5.82;;;5.30;99.90;;;;;;5091277;28;20231;-74
2021/01/15 01:08:57;;;;;;;10.93;5.70;;;5.20;99.90;;;;;;5090120;28;20186;-76
2021/01/15 01:11:25;;;;;;;6.68;4.40;;;5.20;99.90;;;;;;5090541;28;20202;-77
2021/01/15 01:13:53;;;;;;;8.55;6.60;;;5.20;99.90;;;;;;5075216;28;20266;-77
2021/01/15 01:16:21;;;;;;;12.32;7.63;;;5.20;99.90;;;;;;5071621;28;20194;-77
2021/01/15 01:18:49;;;;;;;7.20;6.45;;;5.20;99.90;;;;;;5073569;28;20662;-76
2021/01/15 01:21:16;;;;;;;5.82;5.22;;;5.10;99.90;;;;;;5090909;28;20241;-76
2021/01/15 01:23:42;;;;;;;10.93;6.53;;;5.20;99.90;;;;;;5081769;28;20198;-76
2021/01/15 01:26:10;;;;;;;8.60;6.40;;;5.20;99.90;;;;;;5071523;28;20203;-76
2021/01/15 01:28:36;;;;;;;8.40;5.70;;;5.10;99.90;;;;;;5072383;28;20836;-76
2021/01/15 01:31:03;;;;;;;8.05;6.97;;;5.10;99.90;;;;;;5071562;28;20206;-76
2021/01/15 01:33:30;;;;;;;7.20;6.50;;;5.10;99.90;;;;;;5071321;28;20198;-77
2021/01/15 01:35:56;;;;;;;10.32;6.70;;;5.10;99.90;;;;;;5081098;28;20527;-77
2021/01/15 01:38:23;;;;;;;8.60;6.68;;;5.10;99.90;;;;;;5088924;28;20700;-77
2021/01/15 01:40:49;;;;;;;10.25;7.07;;;5.10;99.90;;;;;;5071420;28;20542;-76
2021/01/15 01:43:15;;;;;;;8.65;6.28;;;5.20;99.90;;;;;;5070650;28;20202;-76
2021/01/15 01:45:42;;;;;;;8.80;7.47;;;5.20;99.90;;;;;;5071570;28;20625;-76
2021/01/15 01:48:09;;;;;;;8.82;7.30;;;5.20;99.90;;;;;;5071534;28;20198;-76
2021/01/15 01:50:41;;;;;;;10.05;7.07;;;5.20;99.90;;;;;;5074365;28;20201;-76
2021/01/15 01:53:09;;;;;;;12.32;6.97;;;5.20;99.90;;;;;;5071289;28;20209;-76
2021/01/15 01:55:37;;;;;;;7.70;6.90;;;5.20;99.90;;;;;;5071605;28;20194;-77
2021/01/15 01:58:04;;;;;;;11.57;7.75;;;5.20;99.90;;;;;;5079491;28;20209;-77
2021/01/15 02:00:32;;;;;;;9.45;7.50;;;5.20;99.90;;;;;;5091040;28;20221;-76
2021/01/15 02:02:59;;;;;;;12.80;7.95;;;5.20;99.90;;;;;;5084820;28;20258;-76
2021/01/15 02:05:25;;;;;;;11.20;6.95;;;5.20;99.90;;;;;;5083769;28;20538;-76
2021/01/15 02:07:52;;;;;;;8.70;7.22;;;5.20;99.90;;;;;;5071350;28;20198;-77
2021/01/15 02:10:27;;;;;;;9.27;7.38;;;5.10;99.90;;;;;;5081417;28;20694;-76
2021/01/15 02:13:03;;;;;;;9.88;8.35;;;5.20;99.90;;;;;;5090539;28;20189;-76
2021/01/15 02:15:37;;;;;;;8.65;7.55;;;5.20;99.90;;;;;;5088018;28;20208;-77
2021/01/15 02:18:09;;;;;;;9.13;7.95;;;5.10;99.90;;;;;;5090577;28;20259;-76
2021/01/15 02:21:01;;;;;;;9.02;7.38;;;5.20;99.90;;;;;;5073052;28;20218;-77
2021/01/15 02:23:36;;;;;;;7.85;6.80;;;5.20;99.90;;;;;;5071269;28;20190;-76
2021/01/15 02:26:39;;;;;;;11.75;7.85;;;5.20;99.90;;;;;;5085371;28;20189;-76
2021/01/15 02:29:17;;;;;;;11.40;9.15;;;5.10;99.90;;;;;;5086556;28;20235;-76
2021/01/15 02:32:27;;;;;;;11.70;7.28;;;5.20;99.90;;;;;;5071081;28;20288;-77
2021/01/15 02:35:03;;;;;;;9.00;7.43;;;5.10;99.90;;;;;;5076800;28;20206;-76
2021/01/15 02:37:38;;;;;;;10.68;8.85;;;5.10;99.90;;;;;;5090704;28;20225;-76
2021/01/15 02:40:11;;;;;;;12.07;8.75;;;5.10;99.90;;;;;;5087682;28;20291;-76
2021/01/15 02:42:38;;;;;;;13.25;9.68;;;5.10;99.90;;;;;;5081780;28;20194;-77
2021/01/15 02:45:09;;;;;;;10.55;8.32;;;5.10;99.90;;;;;;5070805;28;20194;-76
2021/01/15 02:47:47;;;;;;;11.27;9.00;;;5.10;99.90;;;;;;5079426;28;20182;-76
2021/01/15 02:50:13;;;;;;;9.07;7.57;;;5.10;99.90;;;;;;5083235;28;20205;-77
2021/01/15 02:52:42;;;;;;;11.10;8.88;;;5.10;99.90;;;;;;5071007;28;20198;-77
2021/01/15 02:55:10;;;;;;;10.73;8.32;;;5.10;99.90;;;;;;5071618;28;20260;-77
2021/01/15 02:57:36;;;;;;;12.80;9.30;;;5.10;99.90;;;;;;5077842;28;20201;-77
2021/01/15 03:00:05;;;;;;;10.52;8.77;;;5.10;99.90;;;;;;5077700;28;20217;-77
2021/01/15 03:02:45;;;;;;;10.98;8.80;;;5.10;99.90;;;;;;5073924;28;20649;-77
2021/01/15 03:05:18;;;;;;;10.10;8.98;;;5.00;99.90;;;;;;5079118;28;20193;-77
2021/01/15 03:07:45;;;;;;;11.02;8.38;;;5.10;99.90;;;;;;5093073;28;20202;-77
2021/01/15 03:10:13;;;;;;;11.38;9.75;;;5.10;99.90;;;;;;5093484;28;20186;-77
2021/01/15 03:12:43;;;;;;;11.23;9.98;;;5.00;99.90;;;;;;5093109;28;20220;-77
2021/01/15 03:15:11;;;;;;;11.85;9.18;;;5.00;99.90;;;;;;5086660;28;20198;-77
2021/01/15 03:17:43;;;;;;;12.32;10.15;;;5.10;99.90;;;;;;5073758;28;20715;-77
2021/01/15 03:20:10;;;;;;;10.80;7.97;;;5.10;99.90;;;;;;5087192;28;20537;-77
2021/01/15 03:22:39;;;;;;;12.40;8.90;;;5.10;99.90;;;;;;5093268;28;20224;-77
2021/01/15 03:25:06;;;;;;;13.90;10.93;;;5.10;99.90;;;;;;5076522;28;20198;-76
2021/01/15 03:27:45;;;;;;;12.18;10.07;;;5.00;99.90;;;;;;5073567;28;20292;-76
2021/01/15 03:30:15;;;;;;;12.52;8.82;;;5.00;99.90;;;;;;5089789;28;20181;-77
2021/01/15 03:32:43;;;;;;;11.43;10.00;;;5.10;99.90;;;;;;5084799;28;20198;-77
2021/01/15 03:35:22;;;;;;;16.98;10.95;;;5.00;99.90;;;;;;5073835;28;20202;-77
2021/01/15 03:37:55;;;;;;;11.57;10.07;;;5.00;99.90;;;;;;5073288;28;20811;-77
2021/01/15 03:40:22;;;;;;;11.45;8.20;;;5.00;99.90;;;;;;5086475;28;20312;-77
2021/01/15 03:42:49;;;;;;;12.95;10.38;;;5.00;99.90;;;;;;5081735;28;20694;-76
2021/01/15 03:45:15;;;;;;;12.15;9.77;;;5.00;99.90;;;;;;5091778;28;20193;-77
2021/01/15 03:47:43;;;;;;;10.63;9.52;;;5.00;99.90;;;;;;5093736;28;20197;-77
2021/01/15 03:50:10;;;;;;;16.25;10.02;;;5.00;99.90;;;;;;5093445;28;20194;-78
2021/01/15 03:52:36;;;;;;;12.07;9.63;;;5.00;99.90;;;;;;5079826;28;20202;-78
2021/01/15 03:55:03;;;;;;;12.70;10.23;;;5.00;99.90;;;;;;5077402;28;20600;-76
2021/01/15 03:57:30;;;;;;;11.27;9.70;;;5.00;99.90;;;;;;5093416;28;20250;-77
2021/01/15 03:59:56;;;;;;;12.65;10.23;;;5.00;99.90;;;;;;5091634;28;20671;-77
2021/01/15 04:02:22;;;;;;;12.88;10.30;;;5.00;99.90;;;;;;5074560;28;20190;-77
2021/01/15 04:04:50;;;;;;;11.55;10.05;;;5.00;99.90;;;;;;5072967;28;20209;-77
2021/01/15 04:07:17;;;;;;;15.63;11.05;;;5.10;99.90;;;;;;5086610;28;20197;-76
2021/01/15 04:09:43;;;;;;;13.60;10.35;;;5.00;99.90;;;;;;5091764;28;20189;-76
2021/01/15 04:12:10;;;;;;;11.15;8.38;;;5.00;99.90;;;;;;5092898;28;20198;-76
2021/01/15 04:14:37;;;;;;;15.35;11.13;;;5.00;99.90;;;;;;5092899;28;20216;-77
2021/01/15 04:17:03;;;;;;;12.20;10.27;;;5.00;99.90;;;;;;5082489;28;20224;-76
2021/01/15 04:19:29;;;;;;;13.32;9.95;;;4.90;99.90;;;;;;5081536;28;20224;-76
2021/01/15 04:21:57;;;;;;;12.82;10.43;;;4.90;99.90;;;;;;5093013;28;20321;-76
2021/01/15 04:24:24;;;;;;;14.32;10.65;;;5.00;99.90;;;;;;5091623;28;20233;-76
2021/01/15 04:26:52;;;;;;;16.02;11.70;;;5.00;99.90;;;;;;5086128;28;20196;-76
2021/01/15 04:29:18;;;;;;;12.18;10.27;;;5.00;99.90;;;;;;5080288;28;20197;-77
2021/01/15 04:31:45;;;;;;;13.68;10.35;;;4.90;99.90;;;;;;5092483;28;20211;-76
2021/01/15 04:34:11;;;;;;;11.77;9.90;;;5.00;99.90;;;;;;5074748;28;20213;-76
2021/01/15 04:36:38;;;;;;;14.55;11.05;;;5.00;99.90;;;;;;5072290;28;20746;-76
2021/01/15 04:39:06;;;;;;;13.73;10.60;;;5.00;99.90;;;;;;5077186;28;20274;-76
2021/01/15 04:41:34;;;;;;;14.75;12.05;;;5.00;99.90;;;;;;5092875;28;20197;-77
2021/01/15 04:44:02;;;;;;;12.68;10.88;;;4.90;99.90;;;;;;5080592;28;20198;-76
2021/01/15 04:46:28;;;;;;;17.00;12.65;;;4.90;99.90;;;;;;5072159;28;20218;-77
2021/01/15 04:48:57;;;;;;;12.05;10.40;;;5.00;99.90;;;;;;5080447;28;20201;-77
2021/01/15 04:51:24;;;;;;;15.68;11.48;;;4.90;99.90;;;;;;5087880;28;20190;-76
2021/01/15 04:53:56;;;;;;;13.30;10.07;;;4.90;99.90;;;;;;5072255;28;20202;-76
2021/01/15 04:56:39;;;;;;;16.88;12.63;;;4.90;99.90;;;;;;5086044;28;20194;-77
2021/01/15 04:59:08;;;;;;;11.65;10.02;;;4.90;99.90;;;;;;5091609;28;20223;-76
2021/01/15 05:01:39;;;;;;;12.95;10.20;;;4.90;99.90;;;;;;5078129;28;20205;-76
2021/01/15 05:04:13;;;;;;;12.23;9.75;;;4.90;99.90;;;;;;5072227;28;20194;-76
2021/01/15 05:06:47;;;;;;;12.77;9.40;;;4.90;99.90;;;;;;5074383;28;20212;-77
2021/01/15 05:09:16;;;;;;;14.32;10.60;;;4.90;99.90;;;;;;5071675;28;20204;-77
2021/01/15 05:11:44;;;;;;;13.73;10.60;;;4.90;99.90;;;;;;5073173;28;20202;-76
2021/01/15 05:14:13;;;;;;;16.42;11.13;;;4.90;99.90;;;;;;5085869;28;20205;-77
2021/01/15 05:16:41;;;;;;;13.30;10.63;;;4.90;99.90;;;;;;5091663;28;20641;-78
2021/01/15 05:19:09;;;;;;;13.80;10.70;;;4.90;99.90;;;;;;5081658;28;20548;-77
2021/01/15 05:21:37;;;;;;;14.20;9.80;;;5.00;99.90;;;;;;5072738;28;20272;-77
2021/01/15 05:24:04;;;;;;;14.43;11.30;;;5.00;99.90;;;;;;5091519;28;20189;-77
2021/01/15 05:26:32;;;;;;;11.48;9.80;;;5.00;99.90;;;;;;5079384;28;20191;-77
2021/01/15 05:29:00;;;;;;;14.88;11.65;;;4.90;99.90;;;;;;5071622;28;20202;-77
2021/01/15 05:31:27;;;;;;;14.98;10.80;;;4.90;99.90;;;;;;5081516;28;20209;-77
2021/01/15 05:34:04;;;;;;;16.98;10.75;;;4.90;99.90;;;;;;5091385;28;20201;-76
2021/01/15 05:36:31;;;;;;;10.60;9.00;;;5.00;99.90;;;;;;5072295;28;20231;-76
2021/01/15 05:39:08;;;;;;;10.38;9.15;;;4.90;99.90;;;;;;5071165;28;20198;-76
2021/01/15 05:41:35;;;;;;;14.93;11.00;;;4.90;99.90;;;;;;5072666;28;20190;-77
2021/01/15 05:44:02;;;;;;;15.10;12.23;;;4.90;99.90;;;;;;5071607;28;20266;-77
2021/01/15 05:46:29;;;;;;;12.52;10.07;;;4.90;99.90;;;;;;5084603;28;20198;-76
2021/01/15 05:48:57;;;;;;;13.40;9.85;;;4.90;99.90;;;;;;5089574;28;20190;-76
2021/01/15 05:51:27;;;;;;;12.38;10.38;;;4.90;99.90;;;;;;5089974;28;20676;-77
2021/01/15 05:53:54;;;;;;;13.63;10.20;;;4.80;99.90;;;;;;5089792;28;20204;-77
2021/01/15 05:56:22;;;;;;;14.10;10.45;;;4.90;99.90;;;;;;5091267;28;20197;-77
2021/01/15 05:59:02;;;;;;;13.10;10.55;;;4.90;99.90;;;;;;5089364;28;20205;-77
2021/01/15 06:01:49;;;;;;;13.50;10.25;;;4.90;99.90;;;;;;5091194;28;20193;-77
2021/01/15 06:04:18;;;;;;;12.23;9.95;;;4.90;99.90;;;;;;5091353;28;20255;-77
2021/01/15 06:06:45;;;;;;;11.65;9.43;;;5.00;99.90;;;;;;5090051;28;20200;-77
2021/01/15 06:09:18;;;;;;;16.33;10.30;;;5.00;99.90;;;;;;5089409;28;20220;-77
2021/01/15 06:11:45;;;;;;;16.60;10.50;;;5.00;99.90;;;;;;5079675;28;20555;-77
2021/01/15 06:14:24;;;;;;;16.38;11.43;;;4.90;99.90;;;;;;5090596;28;20197;-76
2021/01/15 06:17:01;;;;;;;15.63;11.40;;;4.90;99.90;;;;;;5071090;28;20267;-77
2021/01/15 06:19:43;;;;;;;13.60;9.52;;;4.90;99.90;;;;;;5070718;28;20217;-76
2021/01/15 06:22:26;;;;;;;13.38;10.05;;;4.90;99.90;;;;;;5082849;28;20197;-77
2021/01/15 06:25:03;;;;;;;14.13;10.20;;;5.00;99.90;;;;;;5070894;28;20213;-76
2021/01/15 06:27:34;;;;;;;11.35;8.32;;;4.90;99.90;;;;;;5077930;28;20177;-76
2021/01/15 06:30:04;;;;;;;15.98;10.07;;;4.90;99.90;;;;;;5093601;28;20186;-76
2021/01/15 06:32:30;;;;;;;14.77;11.05;;;4.90;99.90;;;;;;5090165;28;20201;-76
2021/01/15 06:34:56;;;;;;;11.25;9.00;;;4.90;99.90;;;;;;5091226;28;20213;-76
2021/01/15 06:37:23;;;;;;;10.32;8.65;;;4.90;99.90;;;;;;5085029;28;20230;-76
2021/01/15 06:40:08;;;;;;;12.05;9.65;;;4.90;99.90;;;;;;5086875;28;20220;-76
2021/01/15 06:42:48;;;;;;;10.27;9.18;;;4.90;99.90;;;;;;5094175;28;20194;-76
2021/01/15 06:45:16;;;;;;;12.75;9.93;;;4.90;99.90;;;;;;5086379;28;20200;-76
2021/01/15 06:47:44;;;;;;;12.73;9.48;;;4.90;99.90;;;;;;5090347;28;20688;-76
2021/01/15 06:50:15;;;;;;;12.60;10.38;;;4.90;99.90;;;;;;5089550;28;20201;-76
2021/01/15 06:52:47;;;;;;;11.18;8.55;;;4.90;99.90;;;;;;5090907;28;20194;-77
2021/01/15 06:55:16;;;;;;;12.68;9.20;;;4.90;99.90;;;;;;5074871;28;20200;-76
2021/01/15 06:57:47;;;;;;;13.65;10.20;;;4.90;99.90;;;;;;5083627;28;20219;-76
2021/01/15 07:00:20;;;;;;;10.18;8.93;;;4.90;99.90;;;;;;5092394;28;20206;-76
2021/01/15 07:03:19;;;;;;;12.07;9.70;;;5.00;99.90;;;;;;5085201;28;20228;-76
2021/01/15 07:05:46;;;;;;;11.75;9.77;;;4.90;99.90;;;;;;5090262;28;20202;-76
2021/01/15 07:08:13;;;;;;;13.32;10.57;;;4.90;99.90;;;;;;5074044;28;20205;-76
2021/01/15 07:10:40;;;;;;;14.85;9.43;;;4.90;99.90;;;;;;5074416;28;20204;-76
2021/01/15 07:13:10;;;;;;;12.80;9.38;;;4.90;99.90;;;;;;5073967;28;20658;-76
2021/01/15 07:15:42;;;;;;;13.00;9.75;;;4.90;99.90;;;;;;5078864;28;20577;-76
2021/01/15 07:18:29;;;;;;;12.98;10.20;;;4.90;99.90;;;;;;5088820;28;20240;-77
2021/01/15 07:20:57;;;;;;;13.30;10.93;;;4.90;99.90;;;;;;5073486;28;20222;-77
2021/01/15 07:23:51;;;;;;;9.63;8.30;;;4.80;99.90;;;;;;5074163;28;20190;-77
2021/01/15 07:26:18;;;;;;;14.05;9.73;;;4.90;99.90;;;;;;5079868;28;20182;-77
2021/01/15 07:28:46;;;;;;;10.40;9.05;;;4.90;99.90;;;;;;5088206;28;20197;-76
2021/01/15 07:31:22;;;;;;;12.48;9.10;;;4.90;99.90;;;;;;5074086;28;20224;-76
2021/01/15 07:33:55;;;;;;;13.32;9.60;;;4.90;99.90;;;;;;5094250;28;20212;-76
2021/01/15 07:36:38;;;;;;;12.35;9.90;;;4.90;99.90;;;;;;5092428;28;20219;-77
2021/01/15 07:39:12;;;;;;;11.70;8.68;;;4.80;99.90;;;;;;5092170;28;20273;-76
2021/01/15 07:41:43;;;;;;;10.07;7.75;;;4.80;99.90;;;;;;5093146;28;20218;-76
2021/01/15 07:44:38;;;;;;;10.82;9.00;;;4.80;99.90;;;;;;5092242;28;20209;-76
2021/01/15 07:47:14;;;;;;;13.25;9.60;;;4.80;99.90;;;;;;5082052;28;20197;-76
2021/01/15 07:49:45;;;;;;;10.73;8.38;;;4.90;99.90;;;;;;5080687;28;20186;-76
2021/01/15 07:52:12;;;;;;;13.05;9.35;;;4.90;99.90;;;;;;5073339;28;20199;-77
2021/01/15 07:55:01;;;;;;;12.00;8.85;;;4.80;99.90;;;;;;5075994;28;20206;-76
2021/01/15 07:57:29;;;;;;;13.63;9.60;;;4.80;99.90;;;;;;5084623;28;20204;-75
2021/01/15 07:59:56;;;;;;;10.98;8.27;;;4.90;99.90;;;;;;5092713;28;20247;-76
2021/01/15 08:02:23;;;;;;;15.00;10.95;;;4.90;99.90;;;;;;5074223;28;20281;-76
2021/01/15 08:05:02;;;;;;;10.05;8.55;;;4.90;99.90;;;;;;5071725;28;20203;-77
2021/01/15 08:07:36;;;;;;;11.48;9.65;;;4.90;99.90;;;;;;5079489;28;20250;-76
2021/01/15 08:10:06;;;;;;;12.40;9.40;;;4.80;99.90;;;;;;5078636;28;20197;-73
2021/01/15 08:12:37;;;;;;;14.32;9.43;;;4.90;99.90;;;;;;5077215;28;20212;-75
2021/01/15 08:15:04;;;;;;;11.27;9.25;;;4.90;99.90;;;;;;5079698;28;20194;-76
2021/01/15 08:17:31;;;;;;;13.70;9.93;;;4.80;99.90;;;;;;5078185;28;20659;-75
2021/01/15 08:19:58;;;;;;;12.82;10.05;;;4.80;99.90;;;;;;5072745;28;20218;-75
2021/01/15 08:22:25;;;;;;;13.05;9.45;;;4.80;99.90;;;;;;5074873;28;20204;-75
2021/01/15 08:24:52;;;;;;;12.10;9.95;;;4.80;99.90;;;;;;5076540;28;20195;-75
2021/01/15 08:27:19;;;;;;;12.60;9.48;;;4.80;99.90;;;;;;5088831;28;20202;-74
2021/01/15 08:29:46;;;;;;;10.55;8.55;;;4.90;99.90;;;;;;5079334;28;20525;-75
2021/01/15 08:32:13;;;;;;;9.65;7.88;;;4.90;99.90;;;;;;5082412;28;20212;-75
2021/01/15 08:34:40;;;;;;;11.18;8.52;;;4.90;99.90;;;;;;5078863;28;20194;-75
2021/01/15 08:37:10;;;;;;;13.77;9.75;;;4.90;99.90;;;;;;5077784;28;20393;-75
2021/01/15 08:39:43;;;;;;;13.18;8.65;;;4.90;99.90;;;;;;5074700;28;20249;-75
2021/01/15 08:42:10;;;;;;;13.65;9.93;;;4.90;99.90;;;;;;5090289;28;20193;-75
2021/01/15 08:44:37;;;;;;;10.20;7.90;;;4.90;99.90;;;;;;5088165;28;20251;-75
2021/01/15 08:47:05;;;;;;;19.15;12.98;;;4.90;99.90;;;;;;5080165;28;20208;-75
2021/01/15 08:49:31;;;;;;;22.77;14.80;;;4.70;99.90;;;;;;5081138;28;20219;-75
2021/01/15 08:52:01;;;;;;;22.50;14.93;;;4.50;99.90;;;;;;5072046;28;20209;-75
2021/01/15 08:54:29;;;;;;;23.58;14.40;;;4.60;99.90;;;;;;5077484;28;20205;-75
2021/01/15 08:56:56;;;;;;;17.13;12.70;;;4.70;99.90;;;;;;5072334;28;20601;-75
2021/01/15 08:59:28;;;;;;;20.98;14.77;;;4.70;99.90;;;;;;5089457;28;20193;-75
2021/01/15 09:01:55;;;;;;;19.60;13.57;;;4.70;99.90;;;;;;5071712;28;20193;-75
2021/01/15 09:04:24;;;;;;;15.80;11.52;;;4.70;99.90;;;;;;5074713;28;20321;-75
2021/01/15 09:06:53;;;;;;;17.98;13.80;;;4.70;99.90;;;;;;5092633;28;20201;-74
2021/01/15 09:09:22;;;;;;;17.63;12.32;;;4.70;99.90;;;;;;5076109;28;20204;-75
2021/01/15 09:11:50;;;;;;;16.75;11.85;;;4.80;99.90;;;;;;5080933;28;20201;-75
2021/01/15 09:14:20;;;;;;;18.75;12.52;;;4.80;99.90;;;;;;5080229;28;20228;-75
2021/01/15 09:16:48;;;;;;;17.70;12.93;;;4.90;99.90;;;;;;5071462;28;20221;-74
2021/01/15 09:19:15;;;;;;;17.27;13.55;;;4.80;99.90;;;;;;5086044;28;20193;-76
2021/01/15 09:21:49;;;;;;;20.20;13.45;;;4.70;99.90;;;;;;5083432;28;20198;-75
2021/01/15 09:24:16;;;;;;;18.17;13.38;;;4.70;99.90;;;;;;5073559;28;20197;-75
2021/01/15 09:26:44;;;;;;;19.27;13.63;;;4.70;99.90;;;;;;5083195;28;20194;-75
2021/01/15 09:29:11;;;;;;;16.88;12.18;;;4.80;99.90;;;;;;5071229;28;20665;-75
2021/01/15 09:31:39;;;;;;;19.67;12.95;;;4.90;99.90;;;;;;5077854;28;20193;-74
2021/01/15 09:34:05;;;;;;;17.42;12.35;;;4.90;99.90;;;;;;5081076;28;20199;-76
2021/01/15 09:36:32;;;;;;;15.48;11.25;;;4.90;99.90;;;;;;5085875;28;20630;-77
2021/01/15 09:38:59;;;;;;;17.00;11.10;;;5.00;99.90;;;;;;5072988;28;20198;-77
2021/01/15 09:41:25;;;;;;;16.98;11.50;;;4.90;99.90;;;;;;5070031;28;20214;-77
2021/01/15 09:43:53;;;;;;;17.27;11.88;;;4.90;99.90;;;;;;5073620;28;20592;-77
2021/01/15 09:46:26;;;;;;;16.27;11.18;;;4.90;99.90;;;;;;5087618;28;20198;-77
2021/01/15 09:48:53;;;;;;;16.63;12.27;;;4.90;99.90;;;;;;5073392;28;20206;-77
2021/01/15 09:51:21;;;;;;;18.80;12.05;;;4.90;99.90;;;;;;5071947;28;20197;-78
2021/01/15 09:53:48;;;;;;;16.60;11.40;;;4.90;99.90;;;;;;5077200;28;20205;-77
2021/01/15 09:56:22;;;;;;;13.90;9.95;;;4.90;99.90;;;;;;5072014;28;20205;-77
2021/01/15 09:58:48;;;;;;;14.90;11.73;;;4.80;99.90;;;;;;5075339;28;20190;-77
2021/01/15 10:01:17;;;;;;;14.73;10.80;;;4.90;99.90;;;;;;5075855;28;20279;-77
2021/01/15 10:03:43;;;;;;;15.98;11.38;;;4.90;99.90;;;;;;5080134;28;20213;-77
2021/01/15 10:06:13;;;;;;;13.68;10.98;;;4.90;99.90;;;;;;5082741;28;20197;-77
2021/01/15 10:08:39;;;;;;;19.20;11.73;;;4.90;99.90;;;;;;5088318;28;20190;-77
2021/01/15 10:11:06;;;;;;;11.43;8.45;;;4.90;99.90;;;;;;5075850;28;20190;-77
2021/01/15 10:13:32;;;;;;;19.88;10.38;;;4.90;99.90;;;;;;5080365;28;20625;-77
2021/01/15 10:16:03;;;;;;;14.00;9.80;;;4.90;99.90;;;;;;5084797;28;20194;-76
2021/01/15 10:18:30;;;;;;;14.73;9.73;;;4.90;99.90;;;;;;5081791;28;20255;-77
2021/01/15 10:20:56;;;;;;;10.73;9.23;;;4.90;99.90;;;;;;5074212;28;20358;-77
2021/01/15 10:23:22;;;;;;;13.48;9.45;;;4.90;99.90;;;;;;5076570;28;20193;-77
2021/01/15 10:25:49;;;;;;;12.00;9.23;;;5.00;99.90;;;;;;5080126;28;20193;-77
2021/01/15 10:28:15;;;;;;;12.43;9.88;;;5.00;99.90;;;;;;5092430;28;20203;-77
2021/01/15 10:30:45;;;;;;;13.50;9.98;;;5.00;99.90;;;;;;5092408;28;20212;-76
2021/01/15 10:33:12;;;;;;;12.35;9.80;;;5.10;99.90;;;;;;5094690;28;20269;-77
2021/01/15 10:35:39;;;;;;;13.88;9.85;;;5.10;99.90;;;;;;5081622;28;20202;-76
2021/01/15 10:38:06;;;;;;;12.32;9.65;;;5.10;99.90;;;;;;5091844;28;20229;-77
2021/01/15 10:40:32;;;;;;;13.75;9.65;;;5.10;99.90;;;;;;5094857;28;20213;-76
2021/01/15 10:42:58;;;;;;;10.98;9.13;;;5.20;99.90;;;;;;5079517;28;20210;-77
2021/01/15 10:45:25;;;;;;;13.68;10.70;;;5.10;99.90;;;;;;5079752;28;20720;-76
2021/01/15 10:47:51;;;;;;;14.15;9.40;;;5.10;99.90;;;;;;5082464;28;20194;-77
2021/01/15 10:50:17;;;;;;;11.88;8.82;;;5.00;99.90;;;;;;5076004;28;20198;-78
2021/01/15 10:52:52;;;;;;;12.18;9.75;;;5.00;99.90;;;;;;5094027;28;20201;-79
2021/01/15 10:55:18;;;;;;;12.38;9.95;;;5.10;99.90;;;;;;5082843;28;20777;-75
2021/01/15 10:57:45;;;;;;;11.98;9.23;;;5.10;99.90;;;;;;5080178;28;20213;-75
2021/01/15 11:00:13;;;;;;;11.88;9.50;;;5.20;99.90;;;;;;5092632;28;20236;-74
2021/01/15 11:02:39;;;;;;;10.52;8.77;;;5.20;99.90;;;;;;5085662;28;20205;-79
2021/01/15 11:05:07;;;;;;;14.15;8.73;;;5.20;99.90;;;;;;5094391;28;20234;-77
2021/01/15 11:07:33;;;;;;;9.93;7.93;;;5.10;99.90;;;;;;5081643;28;20638;-77
2021/01/15 11:10:00;;;;;;;11.30;9.05;;;5.10;99.90;;;;;;5092199;28;20197;-75
2021/01/15 11:12:27;;;;;;;12.93;8.90;;;5.30;99.90;;;;;;5081720;28;20228;-76
2021/01/15 11:14:53;;;;;;;9.50;8.18;;;5.10;99.90;;;;;;5075762;28;20293;-75
2021/01/15 11:17:19;;;;;;;11.48;8.48;;;5.20;99.90;;;;;;5084403;28;20193;-76
2021/01/15 11:19:46;;;;;;;12.00;7.50;;;5.20;99.90;;;;;;5093020;28;20621;-76
2021/01/15 11:22:12;;;;;;;10.55;8.15;;;5.20;99.90;;;;;;5077797;28;20248;-76
2021/01/15 11:24:38;;;;;;;10.70;8.50;;;5.30;99.90;;;;;;5077124;28;20197;-77
2021/01/15 11:27:06;;;;;;;9.85;8.63;;;5.30;99.90;;;;;;5077696;28;20206;-75
2021/01/15 11:29:32;;;;;;;13.77;9.43;;;5.30;99.90;;;;;;5089196;28;20202;-76
2021/01/15 11:31:58;;;;;;;11.00;8.85;;;5.30;99.90;;;;;;5078048;28;20661;-78
2021/01/15 11:34:25;;;;;;;8.93;7.60;;;5.40;99.90;;;;;;5079493;28;20193;-77
2021/01/15 11:36:51;;;;;;;10.95;8.30;;;5.50;99.90;;;;;;5085718;28;20233;-76
2021/01/15 11:39:17;;;;;;;8.95;7.28;;;5.30;99.90;;;;;;5093061;28;20197;-76
2021/01/15 11:41:44;;;;;;;10.50;8.00;;;5.40;99.90;;;;;;5087228;28;20220;-76
2021/01/15 11:44:12;;;;;;;10.10;7.60;;;5.40;99.90;;;;;;5093655;28;20196;-76
2021/01/15 11:46:38;;;;;;;10.00;6.65;;;5.40;99.90;;;;;;5079363;28;20197;-76
2021/01/15 11:49:05;;;;;;;12.73;7.57;;;5.40;99.90;;;;;;5091353;28;20202;-75
2021/01/15 11:51:31;;;;;;;11.40;7.82;;;5.30;99.90;;;;;;5080485;28;20235;-76
2021/01/15 11:53:58;;;;;;;9.98;7.43;;;5.30;99.90;;;;;;5092993;28;20268;-77
2021/01/15 11:56:24;;;;;;;9.35;7.25;;;5.30;99.90;;;;;;5077789;28;20709;-76
2021/01/15 11:58:51;;;;;;;10.48;8.05;;;5.30;99.90;;;;;;5088644;28;20197;-76
2021/01/15 12:01:20;;;;;;;9.38;6.65;;;5.30;99.90;;;;;;5093147;28;20236;-75
2021/01/15 12:03:46;;;;;;;9.07;6.60;;;5.20;99.90;;;;;;5090249;28;20202;-76
2021/01/15 12:06:13;;;;;;;9.98;7.15;;;5.30;99.90;;;;;;5078592;28;20193;-76
2021/01/15 12:08:40;;;;;;;8.63;6.57;;;5.40;99.90;;;;;;5076594;28;20216;-76
2021/01/15 12:11:07;;;;;;;13.70;7.55;;;5.40;99.90;;;;;;5085066;28;20201;-74
2021/01/15 12:13:34;;;;;;;13.55;8.35;;;5.30;99.90;;;;;;5079355;28;20200;-75
2021/01/15 12:16:01;;;;;;;9.45;7.68;;;5.20;99.90;;;;;;5086428;28;20198;-76
2021/01/15 12:18:28;;;;;;;14.45;8.88;;;5.20;99.90;;;;;;5086838;28;20209;-76
2021/01/15 12:20:54;;;;;;;15.35;9.13;;;5.10;99.90;;;;;;5081032;28;20221;-76
2021/01/15 12:23:22;;;;;;;11.95;8.82;;;5.10;99.90;;;;;;5080953;28;20221;-76
2021/01/15 12:25:48;;;;;;;9.73;8.32;;;5.10;99.90;;;;;;5078083;28;20201;-76
2021/01/15 12:28:15;;;;;;;13.52;8.00;;;5.20;99.90;;;;;;5092705;28;20229;-76
2021/01/15 12:30:43;;;;;;;9.90;7.45;;;5.20;99.90;;;;;;5084801;28;20197;-75
2021/01/15 12:33:11;;;;;;;12.38;8.63;;;5.20;99.90;;;;;;5071079;28;20299;-76
2021/01/15 12:35:39;;;;;;;13.05;9.07;;;5.30;99.90;;;;;;5073910;28;20193;-76
2021/01/15 12:38:06;;;;;;;10.30;7.88;;;5.40;99.90;;;;;;5074681;28;20229;-76
2021/01/15 12:40:33;;;;;;;9.38;7.85;;;5.40;99.90;;;;;;5079344;28;20217;-76
2021/01/15 12:42:59;;;;;;;9.68;7.60;;;5.30;99.90;;;;;;5092538;28;20334;-76
2021/01/15 12:45:26;;;;;;;11.68;7.53;;;5.30;99.90;;;;;;5077215;28;20196;-76
2021/01/15 12:47:52;;;;;;;11.15;8.63;;;5.20;99.90;;;;;;5080657;28;20202;-76
2021/01/15 12:50:19;;;;;;;10.18;7.45;;;5.30;99.90;;;;;;5075841;28;20202;-76
2021/01/15 12:52:46;;;;;;;10.90;6.80;;;5.30;99.90;;;;;;5090744;28;20201;-76
2021/01/15 12:55:12;;;;;;;8.40;6.88;;;5.30;99.90;;;;;;5072673;28;20285;-77